Time;durP1;ratioP1;P1;durP2;ratioP2;P2;SDS_P1;SDS_P2;PMS_P1;PMS_P2;Temp;Humidity;BMP_temperature;BMP_pressure;BME280_temperature;BME280_humidity;BME280_pressure;Samples;Min_cycle;Max_cycle;Signal;HPM_P1;HPM_P2
2023/12/29 00:00:08;;;;;;;15.73;4.10;;;10.70;99.90;;;;;;5081977;28;21158;-62
2023/12/29 00:02:36;;;;;;;12.63;3.07;;;10.70;99.90;;;;;;5082936;28;20306;-60
2023/12/29 00:05:05;;;;;;;16.60;2.60;;;10.60;99.90;;;;;;5079474;28;20223;-61
2023/12/29 00:07:34;;;;;;;13.80;2.77;;;10.60;99.90;;;;;;5084710;28;20260;-61
2023/12/29 00:10:02;;;;;;;9.47;2.30;;;10.60;99.90;;;;;;5082600;28;20211;-61
2023/12/29 00:12:31;;;;;;;11.70;2.57;;;10.60;99.90;;;;;;5080621;28;20223;-62
2023/12/29 00:15:01;;;;;;;17.60;2.83;;;10.60;99.90;;;;;;5082405;28;20238;-61
2023/12/29 00:17:31;;;;;;;10.37;2.93;;;10.50;99.90;;;;;;5085443;28;20227;-61
2023/12/29 00:20:00;;;;;;;8.87;2.47;;;10.50;99.90;;;;;;5085021;28;20720;-60
2023/12/29 00:22:28;;;;;;;10.90;2.43;;;10.50;99.90;;;;;;5087958;28;20196;-62
2023/12/29 00:24:57;;;;;;;11.80;2.80;;;10.50;99.90;;;;;;5085945;28;20717;-61
2023/12/29 00:27:25;;;;;;;7.73;3.00;;;10.50;99.90;;;;;;5083932;28;20227;-61
2023/12/29 00:29:53;;;;;;;13.67;3.10;;;10.50;99.90;;;;;;5082045;28;20223;-61
2023/12/29 00:32:23;;;;;;;11.37;3.10;;;10.50;99.90;;;;;;5084724;28;20255;-61
2023/12/29 00:34:51;;;;;;;7.60;2.70;;;10.50;99.90;;;;;;5084125;28;20194;-61
2023/12/29 00:37:20;;;;;;;8.97;2.53;;;10.50;99.90;;;;;;5095831;28;20222;-61
2023/12/29 00:39:48;;;;;;;13.97;3.00;;;10.50;99.90;;;;;;5086115;28;20226;-61
2023/12/29 00:42:16;;;;;;;10.37;2.97;;;10.50;99.90;;;;;;5083724;28;21185;-61
2023/12/29 00:44:44;;;;;;;12.80;2.57;;;10.40;99.90;;;;;;5077109;28;20310;-60
2023/12/29 00:47:15;;;;;;;8.70;2.60;;;10.50;99.90;;;;;;5084923;28;20249;-62
2023/12/29 00:49:45;;;;;;;8.70;2.60;;;10.50;99.90;;;;;;5082542;28;20196;-61
2023/12/29 00:52:13;;;;;;;13.73;2.70;;;10.50;99.90;;;;;;5078574;28;20231;-61
2023/12/29 00:54:41;;;;;;;7.67;2.17;;;10.40;99.90;;;;;;5082565;28;20325;-61
2023/12/29 00:57:10;;;;;;;14.33;2.70;;;10.40;99.90;;;;;;5080936;28;20231;-61
2023/12/29 00:59:39;;;;;;;9.87;2.40;;;10.40;99.90;;;;;;5083417;28;20563;-61
2023/12/29 01:02:08;;;;;;;9.70;2.90;;;10.40;99.90;;;;;;5082700;28;20192;-61
2023/12/29 01:04:38;;;;;;;5.63;2.50;;;10.40;99.90;;;;;;5081721;28;20226;-62
2023/12/29 01:07:08;;;;;;;8.57;2.50;;;10.40;99.90;;;;;;5085845;28;20215;-61
2023/12/29 01:09:39;;;;;;;13.23;2.67;;;10.40;99.90;;;;;;5082842;28;20262;-61
2023/12/29 01:12:08;;;;;;;6.90;2.33;;;10.40;99.90;;;;;;5083716;28;20234;-62
2023/12/29 01:14:36;;;;;;;10.23;2.60;;;10.40;99.90;;;;;;5083373;28;20685;-61
2023/12/29 01:17:05;;;;;;;9.07;2.50;;;10.40;99.90;;;;;;5085351;28;20198;-61
2023/12/29 01:19:33;;;;;;;11.60;2.80;;;10.40;99.90;;;;;;5084511;28;20351;-61
2023/12/29 01:22:01;;;;;;;11.50;2.87;;;10.40;99.90;;;;;;5084829;28;20212;-61
2023/12/29 01:24:31;;;;;;;12.93;2.97;;;10.40;99.90;;;;;;5079139;28;20224;-61
2023/12/29 01:27:12;;;;;;;9.43;2.53;;;10.30;99.90;;;;;;5080540;28;20225;-62
2023/12/29 01:29:41;;;;;;;10.83;2.67;;;10.20;99.90;;;;;;5083020;28;20234;-62
2023/12/29 01:32:10;;;;;;;12.27;2.60;;;10.20;99.90;;;;;;5081089;28;20204;-60
2023/12/29 01:34:38;;;;;;;18.17;3.13;;;10.30;99.90;;;;;;5079674;28;20527;-61
2023/12/29 01:37:07;;;;;;;13.27;2.90;;;10.30;99.90;;;;;;5080305;28;20243;-61
2023/12/29 01:39:37;;;;;;;10.47;2.50;;;10.30;99.90;;;;;;5078717;28;20688;-61
2023/12/29 01:42:06;;;;;;;12.47;2.90;;;10.30;99.90;;;;;;5082078;28;21033;-61
2023/12/29 01:44:35;;;;;;;11.03;2.50;;;10.20;99.90;;;;;;5083166;28;20231;-61
2023/12/29 01:47:06;;;;;;;10.23;2.40;;;10.20;99.90;;;;;;5081481;28;20211;-60
2023/12/29 01:49:35;;;;;;;11.33;2.57;;;10.30;99.90;;;;;;5082994;28;20234;-60
2023/12/29 01:52:04;;;;;;;14.50;3.00;;;10.20;99.90;;;;;;5079895;27;20326;-61
2023/12/29 01:54:38;;;;;;;9.00;3.20;;;10.30;99.90;;;;;;5077945;28;20223;-61
2023/12/29 01:57:08;;;;;;;10.83;2.87;;;10.20;99.90;;;;;;5082972;27;20680;-62
2023/12/29 01:59:37;;;;;;;14.40;2.70;;;10.20;99.90;;;;;;5079432;28;20223;-60
2023/12/29 02:02:05;;;;;;;9.83;2.63;;;10.20;99.90;;;;;;5079493;28;20192;-61
2023/12/29 02:04:36;;;;;;;17.13;3.07;;;10.30;99.90;;;;;;5084943;28;20585;-61
2023/12/29 02:07:05;;;;;;;12.43;3.03;;;10.30;99.90;;;;;;5080825;28;21934;-61
2023/12/29 02:09:35;;;;;;;16.20;2.77;;;10.30;99.90;;;;;;5082876;28;20224;-61
2023/12/29 02:12:05;;;;;;;8.90;3.03;;;10.30;99.90;;;;;;5083891;28;20246;-61
2023/12/29 02:14:34;;;;;;;13.33;2.67;;;10.30;99.90;;;;;;5081260;28;20219;-61
2023/12/29 02:17:10;;;;;;;8.77;2.63;;;10.30;99.90;;;;;;5081065;28;20272;-61
2023/12/29 02:19:40;;;;;;;9.30;2.40;;;10.30;99.90;;;;;;5082193;28;20283;-61
2023/12/29 02:22:09;;;;;;;12.73;2.80;;;10.40;99.90;;;;;;5079008;28;20261;-61
2023/12/29 02:24:39;;;;;;;10.57;2.80;;;10.30;99.90;;;;;;5080940;28;20317;-61
2023/12/29 02:27:33;;;;;;;13.03;3.30;;;10.30;99.90;;;;;;5081295;28;20226;-61
2023/12/29 02:30:11;;;;;;;10.87;2.73;;;10.30;99.90;;;;;;5082738;28;20683;-61
2023/12/29 02:32:42;;;;;;;13.07;2.90;;;10.30;99.90;;;;;;5082167;28;20704;-61
2023/12/29 02:35:13;;;;;;;11.83;2.70;;;10.30;99.90;;;;;;5081854;28;20530;-61
2023/12/29 02:37:42;;;;;;;7.63;2.30;;;10.30;99.90;;;;;;5081241;28;20192;-61
2023/12/29 02:40:11;;;;;;;9.23;3.07;;;10.30;99.90;;;;;;5078384;28;20211;-61
2023/12/29 02:42:46;;;;;;;8.53;2.40;;;10.30;99.90;;;;;;5080382;28;20214;-61
2023/12/29 02:45:14;;;;;;;8.00;2.73;;;10.20;99.90;;;;;;5081480;28;20221;-61
2023/12/29 02:47:43;;;;;;;9.97;2.43;;;10.30;99.90;;;;;;5081333;28;20227;-62
2023/12/29 02:50:12;;;;;;;8.63;2.43;;;10.20;99.90;;;;;;5083225;28;20280;-61
2023/12/29 02:52:40;;;;;;;9.73;2.53;;;10.30;99.90;;;;;;5083629;28;20207;-61
2023/12/29 02:55:09;;;;;;;10.13;2.70;;;10.20;99.90;;;;;;5080967;28;20250;-61
2023/12/29 02:57:38;;;;;;;11.10;2.90;;;10.20;99.90;;;;;;5080527;28;20220;-61
2023/12/29 03:00:08;;;;;;;7.03;2.57;;;10.20;99.90;;;;;;5079536;28;20223;-61
2023/12/29 03:02:37;;;;;;;13.40;2.50;;;10.20;99.90;;;;;;5087019;28;20230;-59
2023/12/29 03:05:06;;;;;;;20.77;2.80;;;10.10;99.90;;;;;;5080970;28;20192;-61
2023/12/29 03:07:34;;;;;;;15.83;3.00;;;10.10;99.90;;;;;;5080424;28;20192;-61
2023/12/29 03:10:02;;;;;;;13.30;2.87;;;10.10;99.90;;;;;;5084060;28;20586;-61
2023/12/29 03:12:31;;;;;;;9.80;2.37;;;10.10;99.90;;;;;;5082154;27;20228;-60
2023/12/29 03:14:59;;;;;;;9.40;2.90;;;10.00;99.90;;;;;;5085234;28;20311;-60
2023/12/29 03:17:29;;;;;;;16.73;2.57;;;10.10;99.90;;;;;;5087677;28;20223;-61
2023/12/29 03:19:57;;;;;;;8.30;2.50;;;10.10;99.90;;;;;;5087914;28;20203;-61
2023/12/29 03:22:26;;;;;;;7.87;2.50;;;10.10;99.90;;;;;;4985925;28;20307;-61
2023/12/29 03:24:54;;;;;;;5.67;2.50;;;10.20;99.90;;;;;;5049337;28;20220;-60
2023/12/29 03:27:22;;;;;;;13.97;3.33;;;10.20;99.90;;;;;;5016406;28;20222;-61
2023/12/29 03:29:51;;;;;;;5.53;2.30;;;10.20;99.90;;;;;;5019149;28;20231;-62
2023/12/29 03:32:19;;;;;;;10.00;2.50;;;10.20;99.90;;;;;;5083507;28;20593;-61
2023/12/29 03:34:49;;;;;;;9.17;2.40;;;10.10;99.90;;;;;;5086281;28;20525;-61
2023/12/29 03:37:17;;;;;;;10.53;2.60;;;10.10;99.90;;;;;;5083415;28;20599;-61
2023/12/29 03:39:46;;;;;;;10.37;2.77;;;10.00;99.90;;;;;;5086594;28;20634;-62
2023/12/29 03:42:14;;;;;;;7.70;2.40;;;10.00;99.90;;;;;;5086695;28;20220;-61
2023/12/29 03:44:43;;;;;;;8.23;2.30;;;10.00;99.90;;;;;;5082791;28;20227;-61
2023/12/29 03:47:11;;;;;;;12.93;2.60;;;10.00;99.90;;;;;;5083593;28;20215;-61
2023/12/29 03:49:40;;;;;;;13.30;2.83;;;10.00;99.90;;;;;;5083753;28;20248;-61
2023/12/29 03:52:10;;;;;;;10.90;2.60;;;10.00;99.90;;;;;;5090778;28;20219;-61
2023/12/29 03:54:38;;;;;;;15.10;2.90;;;10.00;99.90;;;;;;5082080;28;20235;-62
2023/12/29 03:57:06;;;;;;;5.03;2.47;;;10.00;99.90;;;;;;5082386;28;20219;-61
2023/12/29 03:59:37;;;;;;;17.67;2.57;;;10.00;99.90;;;;;;5085374;28;20237;-61
2023/12/29 04:02:06;;;;;;;15.43;3.13;;;10.10;99.90;;;;;;5083711;28;20365;-61
2023/12/29 04:04:38;;;;;;;11.07;2.30;;;10.00;99.90;;;;;;5082348;28;20224;-60
2023/12/29 04:07:09;;;;;;;13.87;2.50;;;10.00;99.90;;;;;;5083343;28;20227;-61
2023/12/29 04:09:37;;;;;;;13.10;2.47;;;10.00;99.90;;;;;;5083951;28;20310;-60
2023/12/29 04:12:06;;;;;;;8.07;2.20;;;10.00;99.90;;;;;;5083275;28;20220;-62
2023/12/29 04:14:35;;;;;;;14.43;2.40;;;9.90;99.90;;;;;;5081617;28;20693;-61
2023/12/29 04:17:13;;;;;;;11.13;2.47;;;9.90;99.90;;;;;;5085787;28;20546;-62
2023/12/29 04:19:41;;;;;;;7.23;2.37;;;9.90;99.90;;;;;;5086426;28;20191;-62
2023/12/29 04:22:11;;;;;;;11.67;2.97;;;9.90;99.90;;;;;;5085580;28;20247;-61
2023/12/29 04:24:39;;;;;;;9.77;3.03;;;9.90;99.90;;;;;;5085674;28;20677;-61
2023/12/29 04:27:08;;;;;;;8.03;2.63;;;9.90;99.90;;;;;;5083073;28;20219;-60
2023/12/29 04:29:36;;;;;;;14.67;2.80;;;9.90;99.90;;;;;;5083925;28;20315;-62
2023/12/29 04:32:05;;;;;;;9.83;2.57;;;9.90;99.90;;;;;;5084008;28;20199;-60
2023/12/29 04:34:33;;;;;;;7.27;2.33;;;9.90;99.90;;;;;;5080792;28;20211;-61
2023/12/29 04:37:02;;;;;;;11.30;2.90;;;9.90;99.90;;;;;;5082174;28;20314;-61
2023/12/29 04:39:31;;;;;;;13.07;3.00;;;9.80;99.90;;;;;;5079831;28;20246;-61
2023/12/29 04:42:00;;;;;;;9.80;2.80;;;9.80;99.90;;;;;;5079595;28;20306;-62
2023/12/29 04:44:28;;;;;;;12.17;3.40;;;9.80;99.90;;;;;;5083865;28;20234;-61
2023/12/29 04:46:56;;;;;;;11.17;2.50;;;9.80;99.90;;;;;;5083699;28;20502;-61
2023/12/29 04:49:24;;;;;;;9.53;2.90;;;9.80;99.90;;;;;;5085820;28;20211;-61
2023/12/29 04:51:53;;;;;;;9.60;2.70;;;9.80;99.90;;;;;;5083428;28;20677;-61
2023/12/29 04:54:21;;;;;;;13.67;2.90;;;9.80;99.90;;;;;;5083285;28;20215;-61
2023/12/29 04:56:51;;;;;;;7.13;2.70;;;9.80;99.90;;;;;;5086474;28;20261;-61
2023/12/29 04:59:20;;;;;;;8.37;2.53;;;9.80;99.90;;;;;;5082939;28;20223;-61
2023/12/29 05:01:48;;;;;;;11.27;2.83;;;9.90;99.90;;;;;;5080887;28;20304;-61
2023/12/29 05:04:16;;;;;;;4.90;2.93;;;9.90;99.90;;;;;;5081694;28;20242;-61
2023/12/29 05:06:45;;;;;;;8.93;2.80;;;9.90;99.90;;;;;;5083562;28;20244;-61
2023/12/29 05:09:13;;;;;;;9.73;2.40;;;9.90;99.90;;;;;;5080942;28;20223;-61
2023/12/29 05:11:41;;;;;;;9.63;2.73;;;9.90;99.90;;;;;;5080370;28;20220;-61
2023/12/29 05:14:11;;;;;;;12.50;3.23;;;10.00;99.90;;;;;;5080803;28;20620;-60
2023/12/29 05:16:39;;;;;;;9.83;3.03;;;10.00;99.90;;;;;;5083711;28;20616;-61
2023/12/29 05:19:07;;;;;;;9.13;2.33;;;10.00;99.90;;;;;;5082688;28;20216;-61
2023/12/29 05:21:36;;;;;;;8.47;2.73;;;10.00;99.90;;;;;;5080575;28;20269;-61
2023/12/29 05:24:05;;;;;;;13.90;2.93;;;10.00;99.90;;;;;;5080757;28;20272;-61
2023/12/29 05:26:34;;;;;;;8.83;2.80;;;10.00;99.90;;;;;;5083372;28;20223;-61
2023/12/29 05:29:03;;;;;;;12.57;3.07;;;10.00;99.90;;;;;;5080151;28;20199;-61
2023/12/29 05:31:32;;;;;;;12.13;2.90;;;10.00;99.90;;;;;;5080653;28;20195;-62
2023/12/29 05:34:01;;;;;;;8.30;2.93;;;10.00;99.90;;;;;;5077985;27;20216;-62
2023/12/29 05:36:30;;;;;;;8.63;3.00;;;10.00;99.90;;;;;;5082801;28;20250;-62
2023/12/29 05:38:59;;;;;;;8.57;2.73;;;10.00;99.90;;;;;;5076713;28;20743;-61
2023/12/29 05:41:27;;;;;;;15.70;3.27;;;10.10;99.90;;;;;;5082091;28;20573;-62
2023/12/29 05:43:57;;;;;;;9.83;2.80;;;10.10;99.90;;;;;;5083415;28;20187;-61
2023/12/29 05:46:26;;;;;;;8.67;2.83;;;10.10;99.90;;;;;;5079991;28;20318;-61
2023/12/29 05:48:55;;;;;;;7.47;2.90;;;10.00;99.90;;;;;;5082559;28;20689;-61
2023/12/29 05:51:24;;;;;;;13.80;2.97;;;10.00;99.90;;;;;;5080280;28;20226;-61
2023/12/29 05:53:52;;;;;;;13.77;3.80;;;10.00;99.90;;;;;;5082304;28;20589;-61
2023/12/29 05:56:21;;;;;;;8.53;2.90;;;9.90;99.90;;;;;;5082843;28;20230;-61
2023/12/29 05:58:52;;;;;;;8.53;3.47;;;9.90;99.90;;;;;;5079525;28;20658;-61
2023/12/29 06:01:21;;;;;;;9.73;3.07;;;9.90;99.90;;;;;;5080957;28;20232;-61
2023/12/29 06:03:49;;;;;;;15.40;3.60;;;9.90;99.90;;;;;;5081162;28;20284;-61
2023/12/29 06:06:19;;;;;;;17.63;4.00;;;9.90;99.90;;;;;;5079851;27;20247;-61
2023/12/29 06:08:47;;;;;;;14.87;3.70;;;9.80;99.90;;;;;;5085947;28;20230;-61
2023/12/29 06:11:16;;;;;;;11.90;3.30;;;9.80;99.90;;;;;;5083360;28;20196;-61
2023/12/29 06:13:45;;;;;;;19.03;3.37;;;9.70;99.90;;;;;;5080715;28;20217;-60
2023/12/29 06:16:18;;;;;;;16.90;2.80;;;9.70;99.90;;;;;;5081128;27;20215;-62
2023/12/29 06:18:47;;;;;;;13.97;2.90;;;9.70;99.90;;;;;;5081648;28;20231;-62
2023/12/29 06:21:16;;;;;;;10.63;2.90;;;9.60;99.90;;;;;;5081215;28;20219;-62
2023/12/29 06:23:46;;;;;;;11.33;2.53;;;9.60;99.90;;;;;;5081886;28;20593;-61
2023/12/29 06:26:17;;;;;;;13.83;3.40;;;9.60;99.90;;;;;;5086504;28;20184;-60
2023/12/29 06:28:46;;;;;;;9.97;2.90;;;9.60;99.90;;;;;;5082755;28;20192;-60
2023/12/29 06:31:14;;;;;;;12.03;2.80;;;9.50;99.90;;;;;;5081264;28;20297;-60
2023/12/29 06:33:43;;;;;;;9.30;2.60;;;9.50;99.90;;;;;;5083306;28;20223;-61
2023/12/29 06:36:12;;;;;;;10.10;2.80;;;9.50;99.90;;;;;;5078753;28;20286;-60
2023/12/29 06:38:41;;;;;;;11.23;3.27;;;9.40;99.90;;;;;;5083365;28;20226;-61
2023/12/29 06:41:11;;;;;;;16.67;3.07;;;9.40;99.90;;;;;;5079056;28;20298;-62
2023/12/29 06:43:43;;;;;;;9.60;3.30;;;9.30;99.90;;;;;;5080696;28;20196;-61
2023/12/29 06:46:13;;;;;;;8.03;3.17;;;9.30;99.90;;;;;;5082707;28;20219;-61
2023/12/29 06:48:42;;;;;;;7.17;2.80;;;9.30;99.90;;;;;;5085663;28;20223;-61
2023/12/29 06:51:18;;;;;;;13.03;3.23;;;9.30;99.90;;;;;;5086049;28;20232;-61
2023/12/29 06:53:47;;;;;;;9.67;2.90;;;9.30;99.90;;;;;;5083283;28;20589;-60
2023/12/29 06:56:17;;;;;;;8.13;2.90;;;9.30;99.90;;;;;;5084133;28;20557;-60
2023/12/29 06:58:46;;;;;;;9.73;2.80;;;9.30;99.90;;;;;;5089305;28;20191;-61
2023/12/29 07:01:15;;;;;;;11.53;2.90;;;9.30;99.90;;;;;;5083823;28;20714;-60
2023/12/29 07:03:44;;;;;;;10.20;3.10;;;9.30;99.90;;;;;;5081718;28;20242;-60
2023/12/29 07:06:13;;;;;;;8.53;3.00;;;9.30;99.90;;;;;;5091171;28;20222;-60
2023/12/29 07:08:41;;;;;;;9.93;2.93;;;9.30;99.90;;;;;;5088022;28;20227;-60
2023/12/29 07:11:11;;;;;;;9.40;3.10;;;9.30;99.90;;;;;;5084017;28;20187;-60
2023/12/29 07:13:42;;;;;;;8.50;2.83;;;9.30;99.90;;;;;;5083079;28;20203;-61
2023/12/29 07:16:11;;;;;;;4.20;2.80;;;9.30;99.90;;;;;;5089349;28;20306;-59
2023/12/29 07:18:39;;;;;;;7.07;2.97;;;9.30;99.90;;;;;;5088467;28;20223;-61
2023/12/29 07:21:08;;;;;;;10.97;3.30;;;9.30;99.90;;;;;;5092565;28;20230;-60
2023/12/29 07:23:36;;;;;;;9.40;3.00;;;9.30;99.90;;;;;;5091539;28;20230;-59
2023/12/29 07:26:05;;;;;;;7.77;2.73;;;9.30;99.90;;;;;;5088058;28;20191;-60
2023/12/29 07:28:34;;;;;;;5.90;3.00;;;9.40;99.90;;;;;;5083478;28;20219;-60
2023/12/29 07:31:03;;;;;;;5.80;2.90;;;9.40;99.90;;;;;;5091215;28;20221;-60
2023/12/29 07:33:32;;;;;;;6.23;2.60;;;9.30;99.90;;;;;;5088555;28;20231;-60
2023/12/29 07:36:03;;;;;;;5.53;2.53;;;9.30;99.90;;;;;;5092904;28;20319;-60
2023/12/29 07:38:32;;;;;;;5.80;2.57;;;9.30;99.90;;;;;;5081878;28;20576;-59
2023/12/29 07:41:01;;;;;;;4.57;2.30;;;9.30;99.90;;;;;;5088942;28;20192;-59
2023/12/29 07:43:30;;;;;;;5.00;2.40;;;9.40;99.90;;;;;;5090485;28;20192;-60
2023/12/29 07:45:58;;;;;;;4.40;2.50;;;9.40;99.90;;;;;;5085363;28;20212;-60
2023/12/29 07:48:28;;;;;;;7.00;2.80;;;9.40;99.90;;;;;;5087545;28;20246;-59
2023/12/29 07:51:04;;;;;;;5.23;2.80;;;9.40;99.90;;;;;;5079732;28;20224;-60
2023/12/29 07:53:32;;;;;;;5.63;2.80;;;9.40;99.90;;;;;;5083461;28;20222;-60
2023/12/29 07:56:01;;;;;;;2.53;2.40;;;9.40;99.90;;;;;;5085464;28;20226;-59
2023/12/29 07:58:29;;;;;;;2.20;2.10;;;9.40;99.90;;;;;;5080870;28;20188;-59
2023/12/29 08:00:57;;;;;;;4.97;2.30;;;9.40;99.90;;;;;;5086202;28;20315;-59
2023/12/29 08:03:27;;;;;;;4.10;2.10;;;9.40;99.90;;;;;;5084642;28;20234;-60
2023/12/29 08:05:55;;;;;;;3.17;2.30;;;9.40;99.90;;;;;;5080377;28;20732;-59
2023/12/29 08:08:23;;;;;;;2.37;2.17;;;9.40;99.90;;;;;;5086963;28;20665;-60
2023/12/29 08:10:51;;;;;;;6.33;2.37;;;9.40;99.90;;;;;;5084452;28;20190;-60
2023/12/29 08:13:20;;;;;;;4.73;2.43;;;9.40;99.90;;;;;;5087722;28;20299;-59
2023/12/29 08:15:48;;;;;;;9.80;2.90;;;9.40;99.90;;;;;;5084314;28;20245;-58
2023/12/29 08:18:17;;;;;;;5.37;2.90;;;9.40;99.90;;;;;;5087306;28;20211;-60
2023/12/29 08:20:47;;;;;;;10.60;2.80;;;9.40;99.90;;;;;;5082998;28;20310;-60
2023/12/29 08:23:16;;;;;;;12.50;3.47;;;9.40;99.90;;;;;;5087975;28;20203;-59
2023/12/29 08:25:44;;;;;;;5.97;3.50;;;9.40;99.90;;;;;;5086959;28;20614;-60
2023/12/29 08:28:12;;;;;;;11.47;4.53;;;9.40;99.90;;;;;;5084444;28;20255;-62
2023/12/29 08:30:41;;;;;;;16.40;5.20;;;9.40;99.90;;;;;;5081108;28;20659;-62
2023/12/29 08:33:09;;;;;;;23.20;7.63;;;9.40;99.90;;;;;;5079465;28;20645;-61
2023/12/29 08:35:37;;;;;;;14.13;6.10;;;9.40;99.90;;;;;;5080157;28;20223;-62
2023/12/29 08:38:07;;;;;;;8.23;3.93;;;9.40;99.90;;;;;;5083454;28;20191;-61
2023/12/29 08:40:36;;;;;;;8.30;3.47;;;9.40;99.90;;;;;;5080858;28;20223;-62
2023/12/29 08:43:07;;;;;;;12.70;3.83;;;9.50;99.90;;;;;;5086007;28;20226;-62
2023/12/29 08:45:36;;;;;;;13.70;3.47;;;9.50;99.90;;;;;;5084298;28;20216;-62
2023/12/29 08:48:05;;;;;;;9.83;3.43;;;9.50;99.90;;;;;;5080110;28;20231;-62
2023/12/29 08:50:34;;;;;;;12.07;3.30;;;9.50;99.90;;;;;;5081871;28;20220;-62
2023/12/29 08:53:02;;;;;;;7.23;3.27;;;9.50;99.90;;;;;;5081207;28;20207;-61
2023/12/29 08:55:32;;;;;;;12.17;3.00;;;9.50;99.90;;;;;;5082663;28;20230;-62
2023/12/29 08:58:00;;;;;;;7.90;2.70;;;9.60;99.90;;;;;;5082255;28;20224;-62
2023/12/29 09:00:30;;;;;;;6.73;2.60;;;9.70;99.90;;;;;;5085103;28;20318;-62
2023/12/29 09:02:58;;;;;;;7.77;3.00;;;9.70;99.90;;;;;;5082170;28;20231;-62
2023/12/29 09:05:26;;;;;;;5.97;2.70;;;9.80;99.90;;;;;;5078580;28;20322;-62
2023/12/29 09:07:55;;;;;;;4.77;2.90;;;9.70;99.90;;;;;;5083263;28;20195;-62
2023/12/29 09:10:23;;;;;;;7.17;2.80;;;9.70;99.90;;;;;;5080794;28;20229;-62
2023/12/29 09:12:53;;;;;;;8.50;2.67;;;9.70;99.90;;;;;;5080509;27;20227;-62
2023/12/29 09:15:22;;;;;;;5.73;2.40;;;9.70;99.90;;;;;;5083177;28;20231;-62
2023/12/29 09:17:51;;;;;;;8.23;2.80;;;9.70;99.90;;;;;;5086190;28;20306;-62
2023/12/29 09:20:19;;;;;;;11.13;2.37;;;9.70;99.90;;;;;;5079653;28;20228;-62
2023/12/29 09:22:48;;;;;;;6.20;2.37;;;9.70;99.90;;;;;;5080192;28;20196;-62
2023/12/29 09:25:16;;;;;;;3.87;2.20;;;9.70;99.90;;;;;;5077508;28;20243;-62
2023/12/29 09:27:49;;;;;;;6.07;2.00;;;9.70;99.90;;;;;;5081640;28;20307;-62
2023/12/29 09:30:19;;;;;;;5.70;2.20;;;9.70;99.90;;;;;;5078955;28;20233;-62
2023/12/29 09:32:48;;;;;;;8.03;2.10;;;9.70;99.90;;;;;;5080288;27;20306;-62
2023/12/29 09:35:17;;;;;;;4.40;1.83;;;9.60;99.90;;;;;;5081745;28;20570;-62
2023/12/29 09:37:45;;;;;;;3.87;1.53;;;9.60;99.90;;;;;;5076605;28;20242;-62
2023/12/29 09:40:13;;;;;;;3.90;1.60;;;9.60;99.90;;;;;;5084706;28;20223;-62
2023/12/29 09:42:45;;;;;;;5.63;1.80;;;9.60;99.90;;;;;;5082070;28;20334;-61
2023/12/29 09:45:14;;;;;;;4.63;1.60;;;9.70;99.90;;;;;;5080129;28;20224;-61
2023/12/29 09:47:44;;;;;;;1.87;1.57;;;9.70;99.90;;;;;;5079696;28;20354;-61
2023/12/29 09:50:15;;;;;;;1.30;1.23;;;9.70;99.90;;;;;;5080444;28;20237;-61
2023/12/29 09:52:44;;;;;;;1.30;1.30;;;9.60;99.90;;;;;;5078524;28;20196;-62
2023/12/29 09:55:13;;;;;;;1.70;1.50;;;9.60;99.90;;;;;;5081649;28;20223;-62
2023/12/29 09:57:41;;;;;;;3.23;1.23;;;9.60;99.90;;;;;;5074167;28;20219;-62
2023/12/29 10:00:12;;;;;;;1.30;1.30;;;9.50;99.90;;;;;;5083957;28;20223;-62
2023/12/29 10:02:41;;;;;;;4.27;1.80;;;9.40;99.90;;;;;;5079270;28;20319;-61
2023/12/29 10:05:10;;;;;;;3.30;2.23;;;9.40;99.90;;;;;;5082420;28;20200;-62
2023/12/29 10:07:40;;;;;;;6.30;2.53;;;9.60;99.90;;;;;;5080003;28;20282;-62
2023/12/29 10:10:14;;;;;;;7.60;3.10;;;9.70;99.90;;;;;;5077936;28;20207;-62
2023/12/29 10:12:44;;;;;;;7.40;3.10;;;9.80;99.90;;;;;;5082471;28;20752;-62
2023/12/29 10:15:18;;;;;;;5.60;3.17;;;9.90;99.90;;;;;;5076668;28;20265;-62
2023/12/29 10:17:53;;;;;;;9.40;3.63;;;9.90;99.90;;;;;;5082357;28;20251;-62
2023/12/29 10:20:34;;;;;;;8.03;3.83;;;10.00;99.90;;;;;;5078692;28;20226;-62
2023/12/29 10:23:09;;;;;;;9.20;3.80;;;10.10;99.90;;;;;;5084470;28;20192;-62
2023/12/29 10:25:37;;;;;;;7.50;4.13;;;10.20;99.90;;;;;;5084466;28;20205;-62
2023/12/29 10:28:06;;;;;;;14.63;3.80;;;10.30;99.90;;;;;;5084639;28;20326;-62
2023/12/29 10:30:36;;;;;;;7.33;3.63;;;10.30;99.90;;;;;;5082992;28;20704;-62
2023/12/29 10:33:06;;;;;;;13.37;4.10;;;10.40;99.90;;;;;;5080728;28;20617;-62
2023/12/29 10:35:40;;;;;;;9.90;3.40;;;10.40;99.90;;;;;;5088312;28;20284;-62
2023/12/29 10:38:11;;;;;;;9.83;4.20;;;10.50;99.90;;;;;;5082426;28;20195;-62
2023/12/29 10:40:39;;;;;;;5.47;3.40;;;10.50;99.90;;;;;;5086421;28;20643;-62
2023/12/29 10:43:09;;;;;;;9.53;3.80;;;10.50;99.90;;;;;;5084377;28;20276;-62
2023/12/29 10:45:37;;;;;;;8.13;3.67;;;10.60;99.90;;;;;;5082479;28;20301;-62
2023/12/29 10:48:07;;;;;;;11.40;3.60;;;10.60;99.90;;;;;;5085184;28;20223;-62
2023/12/29 10:50:45;;;;;;;8.70;4.00;;;10.70;99.90;;;;;;5083993;28;20220;-62
2023/12/29 10:53:14;;;;;;;14.63;3.83;;;10.70;99.90;;;;;;5086994;28;20496;-62
2023/12/29 10:55:43;;;;;;;10.00;4.40;;;10.80;99.90;;;;;;5088020;28;20188;-63
2023/12/29 10:58:11;;;;;;;12.70;5.13;;;10.80;99.90;;;;;;5081869;28;20223;-62
2023/12/29 11:00:39;;;;;;;10.30;4.57;;;10.80;99.90;;;;;;5086295;28;20227;-62
2023/12/29 11:03:08;;;;;;;14.03;5.07;;;10.70;99.90;;;;;;5080012;28;20223;-62
2023/12/29 11:05:37;;;;;;;11.30;4.27;;;10.70;99.90;;;;;;5080220;28;20281;-62
2023/12/29 11:08:16;;;;;;;10.97;4.67;;;10.70;99.90;;;;;;5085201;28;20185;-61
2023/12/29 11:10:45;;;;;;;10.13;4.87;;;10.80;99.90;;;;;;5084703;28;20196;-62
2023/12/29 11:13:14;;;;;;;13.70;5.10;;;10.80;99.90;;;;;;5083688;28;20242;-62
2023/12/29 11:15:48;;;;;;;12.20;4.87;;;10.80;99.90;;;;;;5077746;28;20300;-63
2023/12/29 11:18:17;;;;;;;10.33;3.97;;;10.80;99.90;;;;;;5087190;28;20717;-62
2023/12/29 11:20:47;;;;;;;20.53;4.90;;;10.80;99.90;;;;;;5086375;28;20698;-62
2023/12/29 11:23:17;;;;;;;7.70;4.03;;;10.80;99.90;;;;;;5082534;28;20196;-62
2023/12/29 11:25:46;;;;;;;6.27;3.43;;;10.90;99.90;;;;;;5085581;28;20227;-63
2023/12/29 11:28:15;;;;;;;4.47;3.07;;;10.80;99.90;;;;;;5080100;28;20285;-62
2023/12/29 11:30:44;;;;;;;9.50;3.50;;;10.90;99.90;;;;;;5084860;28;20215;-62
2023/12/29 11:33:19;;;;;;;10.30;3.53;;;10.90;99.90;;;;;;5084164;28;20238;-63
2023/12/29 11:35:54;;;;;;;7.87;3.30;;;10.80;99.90;;;;;;5080608;28;20604;-63
2023/12/29 11:38:39;;;;;;;5.43;3.50;;;10.80;99.90;;;;;;5087450;28;20230;-62
2023/12/29 11:41:14;;;;;;;11.90;3.80;;;10.80;99.90;;;;;;5085479;28;20685;-63
2023/12/29 11:43:42;;;;;;;7.27;3.70;;;10.70;99.90;;;;;;5081587;28;20614;-63
2023/12/29 11:46:33;;;;;;;10.47;3.53;;;10.70;99.90;;;;;;5085573;28;20330;-62
2023/12/29 11:49:04;;;;;;;6.93;3.50;;;10.70;99.90;;;;;;5084408;28;20223;-63
2023/12/29 11:51:34;;;;;;;10.10;3.50;;;10.60;99.90;;;;;;5084167;28;20303;-63
2023/12/29 11:54:05;;;;;;;5.80;2.90;;;10.60;99.90;;;;;;5083792;28;20215;-63
2023/12/29 11:56:35;;;;;;;6.90;3.27;;;10.50;99.90;;;;;;5084695;28;20230;-63
2023/12/29 11:59:20;;;;;;;4.33;2.43;;;10.50;99.90;;;;;;5086421;28;20233;-62
2023/12/29 12:01:49;;;;;;;6.37;2.40;;;10.40;99.90;;;;;;5082042;28;20662;-63
2023/12/29 12:04:41;;;;;;;6.27;2.50;;;10.40;99.90;;;;;;5082815;28;20242;-62
2023/12/29 12:07:16;;;;;;;5.07;2.50;;;10.40;99.90;;;;;;5080337;28;20219;-62
2023/12/29 12:09:49;;;;;;;8.73;2.20;;;10.40;99.90;;;;;;5080806;28;20689;-62
2023/12/29 12:12:40;;;;;;;6.20;2.10;;;10.30;99.90;;;;;;5082790;28;20230;-62
2023/12/29 12:15:34;;;;;;;5.23;2.53;;;10.20;99.90;;;;;;5082380;28;20219;-62
2023/12/29 12:18:06;;;;;;;1.90;1.70;;;10.20;99.90;;;;;;5085439;28;20597;-62
2023/12/29 12:20:35;;;;;;;2.93;2.00;;;10.20;99.90;;;;;;5083074;28;20307;-63
2023/12/29 12:23:11;;;;;;;4.63;2.10;;;10.10;99.90;;;;;;5081981;28;20203;-62
2023/12/29 12:25:41;;;;;;;3.23;1.90;;;10.10;99.90;;;;;;5084487;28;20184;-63
2023/12/29 12:28:11;;;;;;;5.90;1.83;;;10.10;99.90;;;;;;5084232;28;20232;-62
2023/12/29 12:30:39;;;;;;;2.60;1.70;;;10.10;99.90;;;;;;5085116;28;20220;-62
2023/12/29 12:33:11;;;;;;;3.17;1.90;;;10.10;99.90;;;;;;5082880;27;20227;-62
2023/12/29 12:35:40;;;;;;;3.30;1.50;;;10.00;99.90;;;;;;5082757;28;20559;-62
2023/12/29 12:38:09;;;;;;;3.57;1.63;;;10.00;99.90;;;;;;5084271;28;20707;-62
2023/12/29 12:40:38;;;;;;;3.57;1.80;;;10.00;99.90;;;;;;5083769;28;20201;-62
2023/12/29 12:43:08;;;;;;;2.87;1.50;;;10.00;99.90;;;;;;5079650;28;20227;-62
2023/12/29 12:45:53;;;;;;;1.90;1.70;;;10.10;99.90;;;;;;5084422;28;20223;-63
2023/12/29 12:48:25;;;;;;;1.53;1.47;;;10.10;99.90;;;;;;5082065;28;20230;-63
2023/12/29 12:50:56;;;;;;;2.73;1.80;;;10.20;99.90;;;;;;5082696;28;20239;-62
2023/12/29 12:53:25;;;;;;;2.77;1.60;;;10.20;99.90;;;;;;5080689;27;20562;-62
2023/12/29 12:55:54;;;;;;;2.30;1.80;;;10.20;99.90;;;;;;5079198;28;20205;-62
2023/12/29 12:58:26;;;;;;;1.67;1.57;;;10.30;99.90;;;;;;5080797;28;20223;-62
2023/12/29 13:00:58;;;;;;;2.67;1.70;;;10.40;99.90;;;;;;5083056;28;20729;-63